sensor_id;sensor_type;location;lat;lon;timestamp;pressure;altitude;pressure_sealevel;temperature;humidity
25430;BME280;13360;48.152;-1.788;2023-04-09T00:01:37;101979.97;;;12.98;100.00
25430;BME280;13360;48.152;-1.788;2023-04-09T00:04:03;101981.91;;;12.97;100.00
25430;BME280;13360;48.152;-1.788;2023-04-09T00:06:28;101973.88;;;12.96;100.00
25430;BME280;13360;48.152;-1.788;2023-04-09T00:08:53;101985.25;;;12.94;100.00
25430;BME280;13360;48.152;-1.788;2023-04-09T00:11:18;101979.41;;;12.91;100.00
25430;BME280;13360;48.152;-1.788;2023-04-09T00:13:43;101981.94;;;12.87;100.00
25430;BME280;13360;48.152;-1.788;2023-04-09T00:16:09;101980.56;;;12.85;100.00
25430;BME280;13360;48.152;-1.788;2023-04-09T00:18:34;101980.00;;;12.82;100.00
25430;BME280;13360;48.152;-1.788;2023-04-09T00:21:00;101981.13;;;12.81;100.00
25430;BME280;13360;48.152;-1.788;2023-04-09T00:23:25;101976.69;;;12.80;100.00
25430;BME280;13360;48.152;-1.788;2023-04-09T00:25:50;101973.38;;;12.78;100.00
25430;BME280;13360;48.152;-1.788;2023-04-09T00:28:15;101969.50;;;12.74;100.00
25430;BME280;13360;48.152;-1.788;2023-04-09T00:30:41;101964.50;;;12.76;100.00
25430;BME280;13360;48.152;-1.788;2023-04-09T00:33:06;101962.03;;;12.75;100.00
25430;BME280;13360;48.152;-1.788;2023-04-09T00:35:31;101954.56;;;12.70;100.00
25430;BME280;13360;48.152;-1.788;2023-04-09T00:37:56;101957.59;;;12.69;100.00
25430;BME280;13360;48.152;-1.788;2023-04-09T00:40:22;101966.19;;;12.67;100.00
25430;BME280;13360;48.152;-1.788;2023-04-09T00:42:47;101954.56;;;12.65;100.00
25430;BME280;13360;48.152;-1.788;2023-04-09T00:45:12;101962.03;;;12.65;100.00
25430;BME280;13360;48.152;-1.788;2023-04-09T00:47:38;101952.63;;;12.61;100.00
25430;BME280;13360;48.152;-1.788;2023-04-09T00:50:03;101948.75;;;12.57;100.00
25430;BME280;13360;48.152;-1.788;2023-04-09T00:52:28;101949.88;;;12.56;100.00
25430;BME280;13360;48.152;-1.788;2023-04-09T00:54:58;101958.47;;;12.54;100.00
25430;BME280;13360;48.152;-1.788;2023-04-09T00:57:24;101949.59;;;12.52;100.00
25430;BME280;13360;48.152;-1.788;2023-04-09T00:59:49;101940.16;;;12.48;100.00
25430;BME280;13360;48.152;-1.788;2023-04-09T01:02:15;101939.34;;;12.52;100.00
25430;BME280;13360;48.152;-1.788;2023-04-09T01:04:41;101936.88;;;12.51;100.00
25430;BME280;13360;48.152;-1.788;2023-04-09T01:07:10;101927.44;;;12.47;100.00
25430;BME280;13360;48.152;-1.788;2023-04-09T01:09:40;101925.78;;;12.46;100.00
25430;BME280;13360;48.152;-1.788;2023-04-09T01:14:44;101918.84;;;12.43;100.00
25430;BME280;13360;48.152;-1.788;2023-04-09T01:17:18;101913.59;;;12.42;100.00
25430;BME280;13360;48.152;-1.788;2023-04-09T01:22:28;101902.50;;;12.42;100.00
25430;BME280;13360;48.152;-1.788;2023-04-09T01:27:43;101889.78;;;12.36;100.00
25430;BME280;13360;48.152;-1.788;2023-04-09T01:30:11;101880.91;;;12.39;100.00
25430;BME280;13360;48.152;-1.788;2023-04-09T01:32:38;101882.03;;;12.38;100.00
25430;BME280;13360;48.152;-1.788;2023-04-09T01:35:04;101881.75;;;12.34;100.00
25430;BME280;13360;48.152;-1.788;2023-04-09T01:37:31;101883.41;;;12.35;100.00
25430;BME280;13360;48.152;-1.788;2023-04-09T01:39:56;101875.41;;;12.29;100.00
25430;BME280;13360;48.152;-1.788;2023-04-09T01:42:22;101890.34;;;12.33;100.00
25430;BME280;13360;48.152;-1.788;2023-04-09T01:44:47;101882.03;;;12.33;100.00
25430;BME280;13360;48.152;-1.788;2023-04-09T01:47:13;101880.94;;;12.34;100.00
25430;BME280;13360;48.152;-1.788;2023-04-09T01:49:38;101892.00;;;12.34;100.00
25430;BME280;13360;48.152;-1.788;2023-04-09T01:52:04;101897.00;;;12.32;100.00
25430;BME280;13360;48.152;-1.788;2023-04-09T01:54:30;101898.13;;;12.31;100.00
25430;BME280;13360;48.152;-1.788;2023-04-09T01:56:56;101896.44;;;12.25;100.00
25430;BME280;13360;48.152;-1.788;2023-04-09T01:59:21;101903.38;;;12.27;100.00
25430;BME280;13360;48.152;-1.788;2023-04-09T02:01:53;101899.75;;;12.27;100.00
25430;BME280;13360;48.152;-1.788;2023-04-09T02:04:21;101907.53;;;12.25;100.00
25430;BME280;13360;48.152;-1.788;2023-04-09T02:06:52;101908.09;;;12.21;100.00
25430;BME280;13360;48.152;-1.788;2023-04-09T02:09:22;101913.09;;;12.19;100.00
25430;BME280;13360;48.152;-1.788;2023-04-09T02:11:48;101915.59;;;12.16;100.00
25430;BME280;13360;48.152;-1.788;2023-04-09T02:14:14;101905.34;;;12.11;100.00
25430;BME280;13360;48.152;-1.788;2023-04-09T02:16:40;101908.69;;;12.08;100.00
25430;BME280;13360;48.152;-1.788;2023-04-09T02:19:06;101919.19;;;12.06;100.00
25430;BME280;13360;48.152;-1.788;2023-04-09T02:21:31;101907.56;;;12.04;100.00
25430;BME280;13360;48.152;-1.788;2023-04-09T02:23:56;101898.97;;;12.01;100.00
25430;BME280;13360;48.152;-1.788;2023-04-09T02:26:22;101912.00;;;12.00;100.00
25430;BME280;13360;48.152;-1.788;2023-04-09T02:28:48;101900.38;;;11.98;100.00
25430;BME280;13360;48.152;-1.788;2023-04-09T02:31:13;101898.72;;;11.97;100.00
25430;BME280;13360;48.152;-1.788;2023-04-09T02:33:38;101887.63;;;11.92;100.00
25430;BME280;13360;48.152;-1.788;2023-04-09T02:36:04;101896.78;;;11.87;100.00
25430;BME280;13360;48.152;-1.788;2023-04-09T02:38:30;101891.25;;;11.87;100.00
25430;BME280;13360;48.152;-1.788;2023-04-09T02:40:55;101887.91;;;11.85;100.00
25430;BME280;13360;48.152;-1.788;2023-04-09T02:43:20;101902.03;;;11.84;100.00
25430;BME280;13360;48.152;-1.788;2023-04-09T02:45:45;101904.78;;;11.84;100.00
25430;BME280;13360;48.152;-1.788;2023-04-09T02:48:11;101906.44;;;11.85;100.00
25430;BME280;13360;48.152;-1.788;2023-04-09T02:50:36;101907.56;;;11.84;100.00
25430;BME280;13360;48.152;-1.788;2023-04-09T02:53:01;101898.69;;;11.82;100.00
25430;BME280;13360;48.152;-1.788;2023-04-09T02:55:26;101895.66;;;11.78;100.00
25430;BME280;13360;48.152;-1.788;2023-04-09T02:57:52;101892.91;;;11.78;100.00
25430;BME280;13360;48.152;-1.788;2023-04-09T03:00:17;101900.34;;;11.78;100.00
25430;BME280;13360;48.152;-1.788;2023-04-09T03:02:42;101894.53;;;11.74;100.00
25430;BME280;13360;48.152;-1.788;2023-04-09T03:05:07;101903.66;;;11.70;100.00
25430;BME280;13360;48.152;-1.788;2023-04-09T03:07:33;101905.59;;;11.69;100.00
25430;BME280;13360;48.152;-1.788;2023-04-09T03:09:58;101900.88;;;11.65;100.00
25430;BME280;13360;48.152;-1.788;2023-04-09T03:12:23;101900.31;;;11.63;100.00
25430;BME280;13360;48.152;-1.788;2023-04-09T03:14:48;101893.69;;;11.58;100.00
25430;BME280;13360;48.152;-1.788;2023-04-09T03:17:14;101891.19;;;11.57;100.00
25430;BME280;13360;48.152;-1.788;2023-04-09T03:19:39;101893.41;;;11.55;100.00
25430;BME280;13360;48.152;-1.788;2023-04-09T03:22:04;101896.19;;;11.55;100.00
25430;BME280;13360;48.152;-1.788;2023-04-09T03:24:30;101892.56;;;11.54;100.00
25430;BME280;13360;48.152;-1.788;2023-04-09T03:26:55;101892.56;;;11.54;100.00
25430;BME280;13360;48.152;-1.788;2023-04-09T03:29:21;101890.91;;;11.48;100.00
25430;BME280;13360;48.152;-1.788;2023-04-09T03:31:46;101897.56;;;11.47;100.00
25430;BME280;13360;48.152;-1.788;2023-04-09T03:34:11;101892.03;;;11.47;100.00
25430;BME280;13360;48.152;-1.788;2023-04-09T03:36:37;101882.88;;;11.42;100.00
25430;BME280;13360;48.152;-1.788;2023-04-09T03:39:02;101889.78;;;11.39;100.00
25430;BME280;13360;48.152;-1.788;2023-04-09T03:41:27;101893.94;;;11.37;100.00
25430;BME280;13360;48.152;-1.788;2023-04-09T03:43:52;101892.56;;;11.34;100.00
25430;BME280;13360;48.152;-1.788;2023-04-09T03:46:18;101888.41;;;11.32;100.00
25430;BME280;13360;48.152;-1.788;2023-04-09T03:48:43;101883.69;;;11.27;100.00
25430;BME280;13360;48.152;-1.788;2023-04-09T03:51:14;101886.97;;;11.24;100.00
25430;BME280;13360;48.152;-1.788;2023-04-09T03:53:40;101882.00;;;11.16;100.00
25430;BME280;13360;48.152;-1.788;2023-04-09T03:56:06;101880.34;;;11.15;100.00
25430;BME280;13360;48.152;-1.788;2023-04-09T03:58:31;101874.81;;;11.15;100.00
25430;BME280;13360;48.152;-1.788;2023-04-09T04:00:57;101870.66;;;11.12;100.00
25430;BME280;13360;48.152;-1.788;2023-04-09T04:03:22;101863.16;;;11.03;100.00
25430;BME280;13360;48.152;-1.788;2023-04-09T04:05:47;101858.44;;;11.03;100.00
25430;BME280;13360;48.152;-1.788;2023-04-09T04:08:12;101868.16;;;11.06;100.00
25430;BME280;13360;48.152;-1.788;2023-04-09T04:10:38;101874.22;;;11.03;100.00
25430;BME280;13360;48.152;-1.788;2023-04-09T04:13:05;101889.44;;;11.05;100.00
25430;BME280;13360;48.152;-1.788;2023-04-09T04:15:30;101888.63;;;11.05;100.00
25430;BME280;13360;48.152;-1.788;2023-04-09T04:17:55;101881.97;;;11.06;100.00
25430;BME280;13360;48.152;-1.788;2023-04-09T04:20:21;101878.38;;;11.05;100.00
25430;BME280;13360;48.152;-1.788;2023-04-09T04:22:46;101872.53;;;11.02;100.00
25430;BME280;13360;48.152;-1.788;2023-04-09T04:25:11;101874.75;;;10.99;100.00
25430;BME280;13360;48.152;-1.788;2023-04-09T04:27:37;101868.13;;;10.95;100.00
25430;BME280;13360;48.152;-1.788;2023-04-09T04:30:06;101866.47;;;10.94;100.00
25430;BME280;13360;48.152;-1.788;2023-04-09T04:32:31;101861.47;;;10.91;100.00
25430;BME280;13360;48.152;-1.788;2023-04-09T04:34:57;101858.16;;;10.89;100.00
25430;BME280;13360;48.152;-1.788;2023-04-09T04:37:22;101847.09;;;10.84;100.00
25430;BME280;13360;48.152;-1.788;2023-04-09T04:39:47;101852.63;;;10.84;100.00
25430;BME280;13360;48.152;-1.788;2023-04-09T04:42:12;101867.28;;;10.85;100.00
25430;BME280;13360;48.152;-1.788;2023-04-09T04:44:38;101872.25;;;10.83;100.00
25430;BME280;13360;48.152;-1.788;2023-04-09T04:47:03;101870.81;;;10.80;100.00
25430;BME280;13360;48.152;-1.788;2023-04-09T04:49:28;101876.34;;;10.80;100.00
25430;BME280;13360;48.152;-1.788;2023-04-09T04:51:54;101870.53;;;10.77;100.00
25430;BME280;13360;48.152;-1.788;2023-04-09T04:54:19;101878.00;;;10.76;100.00
25430;BME280;13360;48.152;-1.788;2023-04-09T04:56:44;101877.44;;;10.74;100.00
25430;BME280;13360;48.152;-1.788;2023-04-09T04:59:10;101882.69;;;10.71;100.00
25430;BME280;13360;48.152;-1.788;2023-04-09T05:01:35;101874.66;;;10.69;100.00
25430;BME280;13360;48.152;-1.788;2023-04-09T05:04:00;101882.94;;;10.69;100.00
25430;BME280;13360;48.152;-1.788;2023-04-09T05:06:27;101887.91;;;10.67;100.00
25430;BME280;13360;48.152;-1.788;2023-04-09T05:08:53;101885.69;;;10.64;100.00
25430;BME280;13360;48.152;-1.788;2023-04-09T05:11:22;101885.66;;;10.59;100.00
25430;BME280;13360;48.152;-1.788;2023-04-09T05:13:47;101897.53;;;10.59;100.00
25430;BME280;13360;48.152;-1.788;2023-04-09T05:16:16;101901.09;;;10.55;100.00
25430;BME280;13360;48.152;-1.788;2023-04-09T05:18:42;101907.75;;;10.54;100.00
25430;BME280;13360;48.152;-1.788;2023-04-09T05:21:07;101903.31;;;10.53;100.00
25430;BME280;13360;48.152;-1.788;2023-04-09T05:23:33;101897.81;;;10.58;100.00
25430;BME280;13360;48.152;-1.788;2023-04-09T05:25:58;101895.31;;;10.61;100.00
25430;BME280;13360;48.152;-1.788;2023-04-09T05:28:23;101906.16;;;10.63;100.00
25430;BME280;13360;48.152;-1.788;2023-04-09T05:30:48;101908.91;;;10.63;100.00
25430;BME280;13360;48.152;-1.788;2023-04-09T05:33:14;101913.06;;;10.65;100.00
25430;BME280;13360;48.152;-1.788;2023-04-09T05:35:40;101919.41;;;10.66;100.00
25430;BME280;13360;48.152;-1.788;2023-04-09T05:38:05;101920.50;;;10.65;100.00
25430;BME280;13360;48.152;-1.788;2023-04-09T05:40:30;101911.97;;;10.66;100.00
25430;BME280;13360;48.152;-1.788;2023-04-09T05:42:55;101896.97;;;10.57;100.00
25430;BME280;13360;48.152;-1.788;2023-04-09T05:45:21;101905.00;;;10.59;100.00
25430;BME280;13360;48.152;-1.788;2023-04-09T05:47:46;101921.56;;;10.59;100.00
25430;BME280;13360;48.152;-1.788;2023-04-09T05:50:11;101928.19;;;10.58;100.00
25430;BME280;13360;48.152;-1.788;2023-04-09T05:52:36;101944.50;;;10.59;100.00
25430;BME280;13360;48.152;-1.788;2023-04-09T05:55:02;101929.06;;;10.63;100.00
25430;BME280;13360;48.152;-1.788;2023-04-09T05:57:27;101930.47;;;10.66;100.00
25430;BME280;13360;48.152;-1.788;2023-04-09T05:59:54;101926.31;;;10.63;100.00
25430;BME280;13360;48.152;-1.788;2023-04-09T06:02:19;101928.81;;;10.65;100.00
25430;BME280;13360;48.152;-1.788;2023-04-09T06:04:45;101931.84;;;10.63;100.00
25430;BME280;13360;48.152;-1.788;2023-04-09T06:07:10;101930.19;;;10.62;100.00
25430;BME280;13360;48.152;-1.788;2023-04-09T06:09:35;101935.72;;;10.62;100.00
25430;BME280;13360;48.152;-1.788;2023-04-09T06:12:01;101939.28;;;10.63;100.00
25430;BME280;13360;48.152;-1.788;2023-04-09T06:14:26;101952.31;;;10.67;100.00
25430;BME280;13360;48.152;-1.788;2023-04-09T06:16:51;101944.31;;;10.71;100.00
25430;BME280;13360;48.152;-1.788;2023-04-09T06:19:17;101942.91;;;10.68;100.00
25430;BME280;13360;48.152;-1.788;2023-04-09T06:21:42;101950.94;;;10.70;100.00
25430;BME280;13360;48.152;-1.788;2023-04-09T06:24:07;101943.75;;;10.69;100.00
25430;BME280;13360;48.152;-1.788;2023-04-09T06:26:33;101953.41;;;10.66;100.00
25430;BME280;13360;48.152;-1.788;2023-04-09T06:28:58;101950.38;;;10.68;100.00
25430;BME280;13360;48.152;-1.788;2023-04-09T06:31:23;101957.28;;;10.65;100.00
25430;BME280;13360;48.152;-1.788;2023-04-09T06:33:49;101965.28;;;10.67;100.00
25430;BME280;13360;48.152;-1.788;2023-04-09T06:36:14;101970.81;;;10.67;100.00
25430;BME280;13360;48.152;-1.788;2023-04-09T06:38:39;101969.16;;;10.66;100.00
25430;BME280;13360;48.152;-1.788;2023-04-09T06:41:05;101974.13;;;10.69;100.00
25430;BME280;13360;48.152;-1.788;2023-04-09T06:43:32;101968.34;;;10.71;100.00
25430;BME280;13360;48.152;-1.788;2023-04-09T06:45:57;101968.91;;;10.73;100.00
25430;BME280;13360;48.152;-1.788;2023-04-09T06:48:23;101976.91;;;10.74;100.00
25430;BME280;13360;48.152;-1.788;2023-04-09T06:50:48;101970.00;;;10.72;100.00
25430;BME280;13360;48.152;-1.788;2023-04-09T06:53:14;101971.41;;;10.74;100.00
25430;BME280;13360;48.152;-1.788;2023-04-09T06:55:39;101979.16;;;10.82;100.00
25430;BME280;13360;48.152;-1.788;2023-04-09T06:58:05;101982.81;;;10.88;100.00
25430;BME280;13360;48.152;-1.788;2023-04-09T07:00:30;101992.22;;;10.92;100.00
25430;BME280;13360;48.152;-1.788;2023-04-09T07:02:56;102001.28;;;10.82;100.00
25430;BME280;13360;48.152;-1.788;2023-04-09T07:05:21;101999.69;;;10.91;100.00
25430;BME280;13360;48.152;-1.788;2023-04-09T07:07:46;102003.31;;;11.02;100.00
25430;BME280;13360;48.152;-1.788;2023-04-09T07:10:12;101998.06;;;11.00;100.00
25430;BME280;13360;48.152;-1.788;2023-04-09T07:12:37;101996.69;;;11.03;100.00
25430;BME280;13360;48.152;-1.788;2023-04-09T07:15:03;101995.28;;;11.00;100.00
25430;BME280;13360;48.152;-1.788;2023-04-09T07:17:29;101993.97;;;11.08;100.00
25430;BME280;13360;48.152;-1.788;2023-04-09T07:19:55;101998.16;;;11.21;100.00
25430;BME280;13360;48.152;-1.788;2023-04-09T07:22:20;102003.41;;;11.22;100.00
25430;BME280;13360;48.152;-1.788;2023-04-09T07:24:46;101994.84;;;11.24;100.00
25430;BME280;13360;48.152;-1.788;2023-04-09T07:27:17;101999.81;;;11.22;100.00
25430;BME280;13360;48.152;-1.788;2023-04-09T07:29:43;102004.84;;;11.35;100.00
25430;BME280;13360;48.152;-1.788;2023-04-09T07:32:08;102015.44;;;11.48;100.00
25430;BME280;13360;48.152;-1.788;2023-04-09T07:34:33;101996.56;;;11.40;100.00
25430;BME280;13360;48.152;-1.788;2023-04-09T07:36:59;102014.88;;;11.51;100.00
25430;BME280;13360;48.152;-1.788;2023-04-09T07:39:24;101997.72;;;11.54;100.00
25430;BME280;13360;48.152;-1.788;2023-04-09T07:41:49;101999.44;;;11.71;100.00
25430;BME280;13360;48.152;-1.788;2023-04-09T07:44:14;101995.00;;;11.70;100.00
25430;BME280;13360;48.152;-1.788;2023-04-09T07:46:40;101980.88;;;11.76;100.00
25430;BME280;13360;48.152;-1.788;2023-04-09T07:49:06;101977.31;;;11.81;100.00
25430;BME280;13360;48.152;-1.788;2023-04-09T07:51:31;101994.50;;;11.93;100.00
25430;BME280;13360;48.152;-1.788;2023-04-09T07:53:56;101986.75;;;12.05;100.00
25430;BME280;13360;48.152;-1.788;2023-04-09T07:56:22;101982.88;;;12.16;100.00
25430;BME280;13360;48.152;-1.788;2023-04-09T07:58:47;101956.28;;;12.15;100.00
25430;BME280;13360;48.152;-1.788;2023-04-09T08:01:15;101939.38;;;12.07;100.00
25430;BME280;13360;48.152;-1.788;2023-04-09T08:03:41;101928.59;;;12.15;100.00
25430;BME280;13360;48.152;-1.788;2023-04-09T08:06:06;101936.88;;;12.26;100.00
25430;BME280;13360;48.152;-1.788;2023-04-09T08:08:32;101964.56;;;12.46;100.00
25430;BME280;13360;48.152;-1.788;2023-04-09T08:10:57;101991.69;;;12.69;100.00
25430;BME280;13360;48.152;-1.788;2023-04-09T08:13:22;101972.25;;;12.85;100.00
25430;BME280;13360;48.152;-1.788;2023-04-09T08:15:49;101921.75;;;12.88;100.00
25430;BME280;13360;48.152;-1.788;2023-04-09T08:18:14;101939.13;;;13.08;100.00
25430;BME280;13360;48.152;-1.788;2023-04-09T08:20:40;101906.09;;;13.22;100.00
25430;BME280;13360;48.152;-1.788;2023-04-09T08:23:09;101910.13;;;13.45;100.00
25430;BME280;13360;48.152;-1.788;2023-04-09T08:25:34;101902.28;;;13.52;100.00
25430;BME280;13360;48.152;-1.788;2023-04-09T08:27:59;101891.16;;;13.57;100.00
25430;BME280;13360;48.152;-1.788;2023-04-09T08:30:24;101889.50;;;13.56;100.00
25430;BME280;13360;48.152;-1.788;2023-04-09T08:32:50;101893.28;;;13.70;100.00
25430;BME280;13360;48.152;-1.788;2023-04-09T08:35:15;101882.41;;;13.74;100.00
25430;BME280;13360;48.152;-1.788;2023-04-09T08:37:40;101893.16;;;13.86;100.00
25430;BME280;13360;48.152;-1.788;2023-04-09T08:40:05;101894.97;;;14.00;100.00
25430;BME280;13360;48.152;-1.788;2023-04-09T08:42:31;101895.38;;;14.18;100.00
25430;BME280;13360;48.152;-1.788;2023-04-09T08:44:58;101863.00;;;14.56;100.00
25430;BME280;13360;48.152;-1.788;2023-04-09T08:47:23;101859.66;;;14.78;100.00
25430;BME280;13360;48.152;-1.788;2023-04-09T08:49:49;101848.88;;;14.95;100.00
25430;BME280;13360;48.152;-1.788;2023-04-09T08:52:15;101849.56;;;15.24;100.00
25430;BME280;13360;48.152;-1.788;2023-04-09T08:54:43;101841.53;;;15.42;100.00
25430;BME280;13360;48.152;-1.788;2023-04-09T08:57:08;101839.91;;;15.54;100.00
25430;BME280;13360;48.152;-1.788;2023-04-09T08:59:33;101839.81;;;15.78;100.00
25430;BME280;13360;48.152;-1.788;2023-04-09T09:02:10;101833.78;;;16.17;100.00
25430;BME280;13360;48.152;-1.788;2023-04-09T09:04:48;101808.00;;;16.53;100.00
25430;BME280;13360;48.152;-1.788;2023-04-09T09:07:14;101794.59;;;16.69;100.00
25430;BME280;13360;48.152;-1.788;2023-04-09T09:09:55;101792.31;;;16.71;100.00
25430;BME280;13360;48.152;-1.788;2023-04-09T09:12:29;101784.03;;;17.16;100.00
25430;BME280;13360;48.152;-1.788;2023-04-09T09:14:54;101793.81;;;17.49;100.00
25430;BME280;13360;48.152;-1.788;2023-04-09T09:17:20;101790.47;;;17.47;100.00
25430;BME280;13360;48.152;-1.788;2023-04-09T09:19:45;101778.94;;;17.40;100.00
25430;BME280;13360;48.152;-1.788;2023-04-09T09:22:10;101769.94;;;17.96;100.00
25430;BME280;13360;48.152;-1.788;2023-04-09T09:24:50;101777.28;;;18.23;100.00
25430;BME280;13360;48.152;-1.788;2023-04-09T09:27:31;101773.50;;;18.19;100.00
25430;BME280;13360;48.152;-1.788;2023-04-09T09:29:57;101769.78;;;18.50;100.00
25430;BME280;13360;48.152;-1.788;2023-04-09T09:32:23;101776.66;;;19.01;100.00
25430;BME280;13360;48.152;-1.788;2023-04-09T09:34:59;101776.81;;;19.22;100.00
25430;BME280;13360;48.152;-1.788;2023-04-09T09:37:26;101770.84;;;19.66;100.00
25430;BME280;13360;48.152;-1.788;2023-04-09T09:39:52;101781.50;;;19.90;100.00
25430;BME280;13360;48.152;-1.788;2023-04-09T09:42:17;101776.03;;;19.94;100.00
25430;BME280;13360;48.152;-1.788;2023-04-09T09:44:42;101791.22;;;19.93;100.00
25430;BME280;13360;48.152;-1.788;2023-04-09T09:47:07;101785.75;;;19.96;100.00
25430;BME280;13360;48.152;-1.788;2023-04-09T09:49:33;101792.47;;;20.21;100.00
25430;BME280;13360;48.152;-1.788;2023-04-09T09:51:59;101782.28;;;20.46;100.00
25430;BME280;13360;48.152;-1.788;2023-04-09T09:54:27;101781.88;;;20.56;100.00
25430;BME280;13360;48.152;-1.788;2023-04-09T09:56:57;101788.59;;;20.43;100.00
25430;BME280;13360;48.152;-1.788;2023-04-09T09:59:29;101784.03;;;20.80;100.00
25430;BME280;13360;48.152;-1.788;2023-04-09T10:01:58;101817.41;;;21.23;100.00
25430;BME280;13360;48.152;-1.788;2023-04-09T10:04:24;101808.19;;;21.44;100.00
25430;BME280;13360;48.152;-1.788;2023-04-09T10:06:50;101778.16;;;21.15;100.00
25430;BME280;13360;48.152;-1.788;2023-04-09T10:09:16;101775.28;;;20.82;100.00
25430;BME280;13360;48.152;-1.788;2023-04-09T10:11:41;101778.09;;;20.23;100.00
25430;BME280;13360;48.152;-1.788;2023-04-09T10:14:09;101780.59;;;19.34;100.00
25430;BME280;13360;48.152;-1.788;2023-04-09T10:16:34;101767.44;;;18.74;100.00
25430;BME280;13360;48.152;-1.788;2023-04-09T10:19:00;101811.19;;;18.70;100.00
25430;BME280;13360;48.152;-1.788;2023-04-09T10:23:54;101816.66;;;18.36;100.00
25430;BME280;13360;48.152;-1.788;2023-04-09T10:26:20;101826.06;;;18.40;100.00
25430;BME280;13360;48.152;-1.788;2023-04-09T10:31:43;101784.59;;;18.02;100.00
25430;BME280;13360;48.152;-1.788;2023-04-09T10:34:09;101764.44;;;17.83;100.00
25430;BME280;13360;48.152;-1.788;2023-04-09T10:36:34;101777.28;;;17.84;100.00
25430;BME280;13360;48.152;-1.788;2023-04-09T10:39:00;101810.22;;;17.95;100.00
25430;BME280;13360;48.152;-1.788;2023-04-09T10:41:35;101835.28;;;18.09;100.00
25430;BME280;13360;48.152;-1.788;2023-04-09T10:44:04;101764.34;;;17.96;100.00
25430;BME280;13360;48.152;-1.788;2023-04-09T10:46:32;101778.91;;;17.85;100.00
25430;BME280;13360;48.152;-1.788;2023-04-09T10:51:36;101765.25;;;17.75;100.00
25430;BME280;13360;48.152;-1.788;2023-04-09T10:54:05;101763.50;;;17.65;100.00
25430;BME280;13360;48.152;-1.788;2023-04-09T10:56:31;101816.22;;;17.80;100.00
25430;BME280;13360;48.152;-1.788;2023-04-09T10:58:57;101776.13;;;17.85;100.00
25430;BME280;13360;48.152;-1.788;2023-04-09T11:01:22;101739.69;;;17.67;100.00
25430;BME280;13360;48.152;-1.788;2023-04-09T11:04:03;101804.03;;;17.76;100.00
25430;BME280;13360;48.152;-1.788;2023-04-09T11:06:31;101748.28;;;17.71;100.00
25430;BME280;13360;48.152;-1.788;2023-04-09T11:09:00;101743.44;;;17.63;100.00
25430;BME280;13360;48.152;-1.788;2023-04-09T11:11:26;101768.47;;;17.68;100.00
25430;BME280;13360;48.152;-1.788;2023-04-09T11:13:56;101775.91;;;17.73;100.00
25430;BME280;13360;48.152;-1.788;2023-04-09T11:16:22;101776.91;;;17.77;100.00
25430;BME280;13360;48.152;-1.788;2023-04-09T11:18:47;101755.09;;;17.87;100.00
25430;BME280;13360;48.152;-1.788;2023-04-09T11:21:12;101764.03;;;17.98;100.00
25430;BME280;13360;48.152;-1.788;2023-04-09T11:23:38;101733.63;;;17.96;100.00
25430;BME280;13360;48.152;-1.788;2023-04-09T11:26:03;101779.56;;;18.13;100.00
25430;BME280;13360;48.152;-1.788;2023-04-09T11:28:29;101752.59;;;18.17;100.00
25430;BME280;13360;48.152;-1.788;2023-04-09T11:30:54;101744.88;;;18.22;100.00
25430;BME280;13360;48.152;-1.788;2023-04-09T11:33:20;101714.94;;;18.14;100.00
25430;BME280;13360;48.152;-1.788;2023-04-09T11:35:45;101703.78;;;17.83;100.00
25430;BME280;13360;48.152;-1.788;2023-04-09T11:38:11;101707.88;;;17.77;100.00
25430;BME280;13360;48.152;-1.788;2023-04-09T11:40:36;101755.47;;;17.94;100.00
25430;BME280;13360;48.152;-1.788;2023-04-09T11:43:09;101718.50;;;17.97;100.00
25430;BME280;13360;48.152;-1.788;2023-04-09T11:45:34;101708.81;;;18.04;100.00
25430;BME280;13360;48.152;-1.788;2023-04-09T11:48:00;101705.69;;;18.05;100.00
25430;BME280;13360;48.152;-1.788;2023-04-09T11:50:26;101702.22;;;18.00;100.00
25430;BME280;13360;48.152;-1.788;2023-04-09T11:52:51;101726.91;;;18.06;100.00
25430;BME280;13360;48.152;-1.788;2023-04-09T11:55:26;101701.09;;;18.09;100.00
25430;BME280;13360;48.152;-1.788;2023-04-09T11:57:56;101686.47;;;18.12;100.00
25430;BME280;13360;48.152;-1.788;2023-04-09T12:00:21;101686.59;;;18.07;100.00
25430;BME280;13360;48.152;-1.788;2023-04-09T12:02:49;101699.09;;;18.01;100.00
25430;BME280;13360;48.152;-1.788;2023-04-09T12:05:24;101694.94;;;17.90;100.00
25430;BME280;13360;48.152;-1.788;2023-04-09T12:07:56;101729.34;;;17.99;100.00
25430;BME280;13360;48.152;-1.788;2023-04-09T12:10:25;101733.81;;;18.09;100.00
25430;BME280;13360;48.152;-1.788;2023-04-09T12:12:50;101730.69;;;18.10;100.00
25430;BME280;13360;48.152;-1.788;2023-04-09T12:17:41;101681.19;;;18.11;100.00
25430;BME280;13360;48.152;-1.788;2023-04-09T12:20:06;101695.88;;;18.16;100.00
25430;BME280;13360;48.152;-1.788;2023-04-09T12:22:33;101682.38;;;18.18;100.00
25430;BME280;13360;48.152;-1.788;2023-04-09T12:25:01;101664.78;;;18.18;100.00
25430;BME280;13360;48.152;-1.788;2023-04-09T12:27:26;101661.97;;;18.18;100.00
25430;BME280;13360;48.152;-1.788;2023-04-09T12:29:51;101675.63;;;18.19;100.00
25430;BME280;13360;48.152;-1.788;2023-04-09T12:32:17;101689.13;;;18.26;100.00
25430;BME280;13360;48.152;-1.788;2023-04-09T12:34:42;101653.75;;;18.21;100.00
25430;BME280;13360;48.152;-1.788;2023-04-09T12:37:07;101679.41;;;18.23;100.00
25430;BME280;13360;48.152;-1.788;2023-04-09T12:39:33;101732.56;;;18.32;100.00
25430;BME280;13360;48.152;-1.788;2023-04-09T12:41:58;101682.75;;;18.34;100.00
25430;BME280;13360;48.152;-1.788;2023-04-09T12:44:23;101655.56;;;18.26;100.00